Time;durP1;ratioP1;P1;durP2;ratioP2;P2;SDS_P1;SDS_P2;PMS_P1;PMS_P2;Temp;Humidity;BMP_temperature;BMP_pressure;BME280_temperature;BME280_humidity;BME280_pressure;Samples;Min_cycle;Max_cycle;Signal;HPM_P1;HPM_P2
2023/12/02 00:00:42;;;;;;;3.78;1.90;;;4.20;83.70;;;;;;5029964;28;20037;-69
2023/12/02 00:03:08;;;;;;;4.90;2.63;;;4.30;83.70;;;;;;5031842;28;20039;-74
2023/12/02 00:05:34;;;;;;;6.40;3.33;;;4.30;83.70;;;;;;5030447;28;20030;-72
2023/12/02 00:08:00;;;;;;;5.57;2.55;;;4.30;83.50;;;;;;5030759;28;20044;-69
2023/12/02 00:10:26;;;;;;;6.28;3.05;;;4.30;83.40;;;;;;5030122;28;20037;-72
2023/12/02 00:12:52;;;;;;;3.92;2.38;;;4.30;83.20;;;;;;5030585;28;20033;-71
2023/12/02 00:15:18;;;;;;;8.98;4.10;;;4.30;83.20;;;;;;5031916;28;20402;-70
2023/12/02 00:17:44;;;;;;;9.02;2.72;;;4.40;83.10;;;;;;5014144;28;20113;-72
2023/12/02 00:20:11;;;;;;;4.38;2.05;;;4.40;82.90;;;;;;5030055;28;20030;-72
2023/12/02 00:22:37;;;;;;;6.40;3.45;;;4.40;82.70;;;;;;5030356;28;20502;-71
2023/12/02 00:25:04;;;;;;;4.93;2.83;;;4.50;82.90;;;;;;5016162;28;20030;-71
2023/12/02 00:27:30;;;;;;;8.48;3.67;;;4.50;82.10;;;;;;5034129;28;20128;-69
2023/12/02 00:29:56;;;;;;;4.05;2.38;;;4.50;82.60;;;;;;5017671;28;20030;-71
2023/12/02 00:32:22;;;;;;;3.05;1.98;;;4.50;82.60;;;;;;5033373;28;20042;-72
2023/12/02 00:34:48;;;;;;;3.08;1.60;;;4.50;82.70;;;;;;5033796;28;20091;-69
2023/12/02 00:37:14;;;;;;;4.03;2.08;;;4.40;82.60;;;;;;5035541;28;20084;-71
2023/12/02 00:39:40;;;;;;;6.10;2.65;;;4.50;82.70;;;;;;5035103;28;20037;-71
2023/12/02 00:42:06;;;;;;;2.53;1.58;;;4.40;82.50;;;;;;5033058;28;20041;-72
2023/12/02 00:44:32;;;;;;;3.80;2.47;;;4.50;82.60;;;;;;5034818;28;20100;-72
2023/12/02 00:46:58;;;;;;;3.33;2.78;;;4.50;82.50;;;;;;5034027;28;20399;-69
2023/12/02 00:49:24;;;;;;;7.05;3.03;;;4.50;82.40;;;;;;5034975;28;20056;-69
2023/12/02 00:51:50;;;;;;;5.20;2.33;;;4.50;82.30;;;;;;5016364;28;20045;-72
2023/12/02 00:54:16;;;;;;;4.90;1.67;;;4.40;82.30;;;;;;5016818;28;20071;-70
2023/12/02 00:56:42;;;;;;;4.88;2.65;;;4.50;82.50;;;;;;5033469;28;20402;-69
2023/12/02 00:59:08;;;;;;;3.30;2.40;;;4.40;82.40;;;;;;5033737;28;20470;-69
2023/12/02 01:01:34;;;;;;;5.25;2.05;;;4.40;82.40;;;;;;5034147;28;20041;-69
2023/12/02 01:04:00;;;;;;;4.22;2.03;;;4.40;82.30;;;;;;5034693;28;20030;-69
2023/12/02 01:06:26;;;;;;;6.72;3.00;;;4.40;82.40;;;;;;5033180;28;20091;-72
2023/12/02 01:08:52;;;;;;;2.40;1.05;;;4.30;82.30;;;;;;5033301;28;20433;-72
2023/12/02 01:11:18;;;;;;;4.40;1.30;;;4.30;82.30;;;;;;5034004;28;20041;-72
2023/12/02 01:13:44;;;;;;;4.97;2.15;;;4.30;82.30;;;;;;5034345;28;20040;-69
2023/12/02 01:16:10;;;;;;;6.75;3.47;;;4.30;82.40;;;;;;5034595;28;20081;-72
2023/12/02 01:18:36;;;;;;;5.47;2.65;;;4.30;82.10;;;;;;5033057;28;20549;-70
2023/12/02 01:21:03;;;;;;;3.00;1.88;;;4.30;82.00;;;;;;5032180;28;20073;-71
2023/12/02 01:23:29;;;;;;;3.15;1.67;;;4.30;82.00;;;;;;5034409;28;20029;-69
2023/12/02 01:25:55;;;;;;;8.80;4.05;;;4.30;82.00;;;;;;5016559;28;20033;-70
2023/12/02 01:28:22;;;;;;;3.72;2.25;;;4.30;82.10;;;;;;5032867;28;20030;-71
2023/12/02 01:30:48;;;;;;;4.00;2.28;;;4.30;82.20;;;;;;5032200;28;20041;-72
2023/12/02 01:33:14;;;;;;;5.70;3.15;;;4.30;82.50;;;;;;5033998;28;20387;-72
2023/12/02 01:35:40;;;;;;;13.57;4.68;;;4.20;82.60;;;;;;5032754;28;20069;-70
2023/12/02 01:38:06;;;;;;;10.63;4.22;;;4.30;82.70;;;;;;5032611;28;20056;-69
2023/12/02 01:40:32;;;;;;;4.13;2.53;;;4.30;83.70;;;;;;5033503;28;20037;-72
2023/12/02 01:42:58;;;;;;;7.32;3.08;;;4.30;82.80;;;;;;5032420;28;20037;-69
2023/12/02 01:45:24;;;;;;;6.68;2.20;;;4.30;82.80;;;;;;5033267;28;20033;-69
2023/12/02 01:47:51;;;;;;;5.53;2.30;;;4.30;82.70;;;;;;5033902;28;20552;-72
2023/12/02 01:50:18;;;;;;;4.30;2.70;;;4.40;82.50;;;;;;5031911;28;20398;-72
2023/12/02 01:52:44;;;;;;;10.20;4.07;;;4.40;82.50;;;;;;5032298;28;20037;-69
2023/12/02 01:55:10;;;;;;;10.15;4.15;;;4.40;82.70;;;;;;5032466;28;20033;-69
2023/12/02 01:57:37;;;;;;;9.80;2.85;;;4.40;82.60;;;;;;5032631;28;20045;-71
2023/12/02 02:00:03;;;;;;;8.68;4.22;;;4.50;82.60;;;;;;5032366;28;20029;-69
2023/12/02 02:02:29;;;;;;;3.97;2.33;;;4.40;82.20;;;;;;5033243;28;20153;-69
2023/12/02 02:04:56;;;;;;;;;;;4.50;82.50;;;;;;5034076;28;20494;-72
2023/12/02 02:07:22;;;;;;;4.97;3.05;;;4.50;82.50;;;;;;5032373;28;19924;-70
2023/12/02 02:09:48;;;;;;;;;;;4.40;82.30;;;;;;5034030;28;20033;-70
2023/12/02 02:12:15;;;;;;;7.10;4.05;;;4.40;82.30;;;;;;5031559;28;19917;-72
2023/12/02 02:14:42;;;;;;;4.75;1.95;;;4.40;82.30;;;;;;5031847;28;20056;-72
2023/12/02 02:17:08;;;;;;;4.80;2.72;;;4.40;82.50;;;;;;5032271;28;20034;-70
2023/12/02 02:19:34;;;;;;;7.13;1.83;;;4.40;82.60;;;;;;5031980;28;20068;-72
2023/12/02 02:22:00;;;;;;;5.05;2.80;;;4.40;82.90;;;;;;5031089;28;20068;-69
2023/12/02 02:24:26;;;;;;;6.43;3.30;;;4.40;82.80;;;;;;5033043;28;20036;-72
2023/12/02 02:26:52;;;;;;;2.78;1.65;;;4.40;82.90;;;;;;5033340;28;20044;-70
2023/12/02 02:29:18;;;;;;;4.15;1.88;;;4.40;83.10;;;;;;5032868;28;20033;-74
2023/12/02 02:31:44;;;;;;;2.28;1.88;;;4.40;83.20;;;;;;5032456;28;20372;-70
2023/12/02 02:34:10;;;;;;;11.23;3.03;;;4.40;83.10;;;;;;5033068;28;20474;-71
2023/12/02 02:36:36;;;;;;;8.27;3.63;;;4.40;83.10;;;;;;5031508;28;20087;-71
2023/12/02 02:39:03;;;;;;;6.80;2.53;;;4.30;83.20;;;;;;5031981;28;20091;-70
2023/12/02 02:41:29;;;;;;;3.65;1.75;;;4.30;82.70;;;;;;5030853;28;20556;-69
2023/12/02 02:43:55;;;;;;;;;;;4.30;83.40;;;;;;5031807;28;20438;-69
2023/12/02 02:46:21;;;;;;;6.32;2.03;;;4.30;83.30;;;;;;5031655;28;20020;-72
2023/12/02 02:48:47;;;;;;;3.58;1.85;;;4.20;83.20;;;;;;5032609;28;20034;-70
2023/12/02 02:51:13;;;;;;;1.92;1.08;;;4.30;83.20;;;;;;5030850;28;20042;-72
2023/12/02 02:53:39;;;;;;;4.25;2.33;;;4.30;83.20;;;;;;5032628;28;20029;-70
2023/12/02 02:56:06;;;;;;;1.08;0.60;;;4.30;83.40;;;;;;5032602;28;20033;-69
2023/12/02 02:58:36;;;;;;;5.38;1.42;;;4.30;82.80;;;;;;5032574;28;20052;-69
2023/12/02 03:01:03;;;;;;;3.55;1.88;;;4.30;83.30;;;;;;5030891;28;20049;-71
2023/12/02 03:03:29;;;;;;;5.15;2.28;;;4.30;83.00;;;;;;5031218;28;20033;-72
2023/12/02 03:05:56;;;;;;;7.45;3.85;;;4.30;82.90;;;;;;5032471;28;20083;-74
2023/12/02 03:08:22;;;;;;;5.10;2.05;;;4.30;82.90;;;;;;5031420;28;20039;-69
2023/12/02 03:10:49;;;;;;;2.25;2.05;;;4.40;82.70;;;;;;5032068;28;20071;-72
2023/12/02 03:13:15;;;;;;;3.00;1.77;;;4.40;82.60;;;;;;5032312;28;20510;-70
2023/12/02 03:15:41;;;;;;;;;;;4.40;82.30;;;;;;5031742;28;20040;-71
2023/12/02 03:18:08;;;;;;;3.50;2.05;;;4.40;82.10;;;;;;5031078;28;19921;-69
2023/12/02 03:20:34;;;;;;;;;;;4.40;81.90;;;;;;5032190;28;20080;-70
2023/12/02 03:23:00;;;;;;;2.55;1.92;;;4.40;81.80;;;;;;5032281;28;20324;-70
2023/12/02 03:25:26;;;;;;;4.10;2.63;;;4.40;81.80;;;;;;5031031;28;20044;-69
2023/12/02 03:27:52;;;;;;;3.58;2.05;;;4.40;81.80;;;;;;5014982;28;20059;-69
2023/12/02 03:30:18;;;;;;;10.07;2.95;;;4.40;81.80;;;;;;5030290;28;20034;-69
2023/12/02 03:32:44;;;;;;;7.65;2.22;;;4.40;81.80;;;;;;5030873;28;20371;-69
2023/12/02 03:35:10;;;;;;;2.97;1.95;;;4.40;81.70;;;;;;5030831;28;20045;-72
2023/12/02 03:37:37;;;;;;;3.92;1.23;;;4.50;81.60;;;;;;5032710;28;20482;-69
2023/12/02 03:40:05;;;;;;;5.25;2.55;;;4.50;81.30;;;;;;5030538;28;20072;-72
2023/12/02 03:42:31;;;;;;;3.38;1.40;;;4.50;81.30;;;;;;5030725;28;20037;-69
2023/12/02 03:44:57;;;;;;;6.60;3.50;;;4.40;81.20;;;;;;5014468;28;20491;-70
2023/12/02 03:47:23;;;;;;;5.07;2.95;;;4.50;81.20;;;;;;5031008;28;20049;-72
2023/12/02 03:49:49;;;;;;;2.00;1.25;;;4.60;81.10;;;;;;5031006;28;20095;-69
2023/12/02 03:52:15;;;;;;;6.30;2.08;;;4.50;81.00;;;;;;5030073;28;20045;-72
2023/12/02 03:54:41;;;;;;;7.60;3.05;;;4.60;81.00;;;;;;5031904;28;20482;-69
2023/12/02 03:57:07;;;;;;;7.05;3.38;;;4.60;81.00;;;;;;5031965;28;20046;-71
2023/12/02 03:59:33;;;;;;;4.78;2.03;;;4.60;80.80;;;;;;5033679;28;20517;-72
2023/12/02 04:01:59;;;;;;;6.00;3.78;;;4.70;80.80;;;;;;5033889;28;20034;-72
2023/12/02 04:04:26;;;;;;;3.90;2.25;;;4.70;80.70;;;;;;5035900;28;20042;-72
2023/12/02 04:06:52;;;;;;;6.45;2.55;;;4.60;80.50;;;;;;5035718;28;20041;-72
2023/12/02 04:09:19;;;;;;;1.65;1.20;;;4.60;80.70;;;;;;5034617;28;20030;-72
2023/12/02 04:11:46;;;;;;;2.15;1.50;;;4.70;80.80;;;;;;5027946;28;20564;-69
2023/12/02 04:14:12;;;;;;;11.60;3.45;;;4.70;80.60;;;;;;5034258;28;20104;-69
2023/12/02 04:16:57;;;;;;;1.30;1.05;;;4.70;80.60;;;;;;5035604;28;20037;-72
2023/12/02 04:19:23;;;;;;;2.92;2.55;;;4.80;80.50;;;;;;5032550;28;20029;-72
2023/12/02 04:21:49;;;;;;;4.22;2.33;;;4.80;80.30;;;;;;5034713;28;20073;-72
2023/12/02 04:24:15;;;;;;;1.23;0.63;;;4.80;80.10;;;;;;5017550;28;20037;-69
2023/12/02 04:26:41;;;;;;;5.40;2.00;;;4.80;80.00;;;;;;5035363;28;20386;-72
2023/12/02 04:29:07;;;;;;;1.92;1.75;;;4.80;80.70;;;;;;5034190;28;20391;-72
2023/12/02 04:31:33;;;;;;;5.35;2.22;;;4.90;79.90;;;;;;5033036;28;20042;-72
2023/12/02 04:33:59;;;;;;;6.78;1.92;;;4.90;79.70;;;;;;5017671;28;20036;-72
2023/12/02 04:36:26;;;;;;;2.38;1.38;;;4.90;79.60;;;;;;5035163;28;20045;-69
2023/12/02 04:38:52;;;;;;;3.72;2.05;;;4.90;79.50;;;;;;5035053;28;20031;-69
2023/12/02 04:41:18;;;;;;;1.55;1.30;;;4.90;79.40;;;;;;5033135;28;20120;-69
2023/12/02 04:43:44;;;;;;;1.95;1.15;;;4.90;79.50;;;;;;5033559;28;20387;-72
2023/12/02 04:46:10;;;;;;;1.98;0.98;;;4.90;79.30;;;;;;5035144;28;20045;-69
2023/12/02 04:48:37;;;;;;;4.68;1.17;;;5.00;79.40;;;;;;5033701;28;20029;-70
2023/12/02 04:51:03;;;;;;;4.10;1.65;;;5.00;79.30;;;;;;5033111;28;20046;-70
2023/12/02 04:53:29;;;;;;;5.60;1.75;;;5.00;79.20;;;;;;5033640;28;20095;-72
2023/12/02 04:55:55;;;;;;;1.58;1.05;;;5.00;79.10;;;;;;5034859;28;21883;-72
2023/12/02 04:58:22;;;;;;;5.40;2.15;;;5.00;79.00;;;;;;5033506;28;20056;-69
2023/12/02 05:00:49;;;;;;;1.50;1.27;;;5.00;79.00;;;;;;5032932;28;20029;-74
2023/12/02 05:03:17;;;;;;;2.25;0.98;;;5.00;78.90;;;;;;5032758;28;20034;-69
2023/12/02 05:05:44;;;;;;;6.65;2.47;;;5.00;79.00;;;;;;5034271;28;20393;-69
2023/12/02 05:08:10;;;;;;;1.52;1.42;;;4.90;78.80;;;;;;5033672;28;20065;-69
2023/12/02 05:10:36;;;;;;;0.47;0.47;;;4.90;79.10;;;;;;5015993;28;20030;-70
2023/12/02 05:13:02;;;;;;;7.95;2.60;;;4.90;79.30;;;;;;5034294;28;20399;-70
2023/12/02 05:15:28;;;;;;;1.25;0.80;;;4.90;79.30;;;;;;5016698;28;20461;-69
2023/12/02 05:17:54;;;;;;;4.05;1.65;;;4.80;79.40;;;;;;5033523;28;20037;-72
2023/12/02 05:20:20;;;;;;;3.45;1.67;;;4.70;79.60;;;;;;5032661;28;20045;-72
2023/12/02 05:22:46;;;;;;;4.88;1.23;;;4.70;79.80;;;;;;5016659;28;20064;-69
2023/12/02 05:25:13;;;;;;;2.85;1.92;;;4.60;79.80;;;;;;5032996;28;20060;-72
2023/12/02 05:27:39;;;;;;;2.35;2.03;;;4.60;80.10;;;;;;5034677;28;20029;-69
2023/12/02 05:30:06;;;;;;;8.95;3.30;;;4.60;80.00;;;;;;5032501;28;20500;-72
2023/12/02 05:32:32;;;;;;;1.58;1.15;;;4.60;80.10;;;;;;5033974;28;20083;-69
2023/12/02 05:34:58;;;;;;;1.20;1.00;;;4.60;80.40;;;;;;5034237;28;20080;-69
2023/12/02 05:37:24;;;;;;;;;;;4.60;80.40;;;;;;5016893;28;20042;-72
2023/12/02 05:39:50;;;;;;;8.75;2.30;;;4.50;80.40;;;;;;5034025;28;19931;-72
2023/12/02 05:42:16;;;;;;;1.75;1.05;;;4.50;80.50;;;;;;5033336;28;20040;-72
2023/12/02 05:44:42;;;;;;;5.60;2.47;;;4.50;80.60;;;;;;5032611;28;20030;-71
2023/12/02 05:47:08;;;;;;;1.83;1.50;;;4.50;80.60;;;;;;5034321;28;20095;-70
2023/12/02 05:49:34;;;;;;;1.98;1.30;;;4.50;80.80;;;;;;5033706;28;20486;-72
2023/12/02 05:52:00;;;;;;;3.88;2.88;;;4.50;80.90;;;;;;5031812;28;20494;-69
2023/12/02 05:54:26;;;;;;;6.00;2.70;;;4.40;81.00;;;;;;5033466;28;20037;-70
2023/12/02 05:56:53;;;;;;;6.88;2.65;;;4.50;81.20;;;;;;5031296;28;20034;-69
2023/12/02 05:59:20;;;;;;;2.58;1.15;;;4.50;81.20;;;;;;5012456;28;20033;-72
2023/12/02 06:01:46;;;;;;;4.30;2.40;;;4.50;80.90;;;;;;5013165;28;20054;-72
2023/12/02 06:04:12;;;;;;;5.80;2.55;;;4.50;81.00;;;;;;5013902;28;20042;-69
2023/12/02 06:06:38;;;;;;;4.93;1.33;;;4.50;81.10;;;;;;5013271;28;20041;-72
2023/12/02 06:09:05;;;;;;;4.28;2.10;;;4.50;80.90;;;;;;5012569;28;20376;-71
2023/12/02 06:11:31;;;;;;;1.95;1.35;;;4.50;80.90;;;;;;5011661;28;20085;-72
2023/12/02 06:13:57;;;;;;;;;;;4.50;80.70;;;;;;5012814;28;20455;-72
2023/12/02 06:16:23;;;;;;;2.13;1.17;;;4.50;80.70;;;;;;5012462;28;19992;-70
2023/12/02 06:18:49;;;;;;;4.05;2.08;;;4.50;80.90;;;;;;5012278;28;20483;-72
2023/12/02 06:21:15;;;;;;;4.03;3.03;;;4.50;81.00;;;;;;5012397;28;20041;-69
2023/12/02 06:23:41;;;;;;;6.22;4.15;;;4.50;81.10;;;;;;5011838;28;20058;-72
2023/12/02 06:26:08;;;;;;;7.30;4.25;;;4.50;81.20;;;;;;5012191;28;20045;-72
2023/12/02 06:28:34;;;;;;;6.15;3.00;;;4.50;80.70;;;;;;5011894;28;20120;-69
2023/12/02 06:31:00;;;;;;;3.40;2.47;;;4.50;81.20;;;;;;5011485;28;20100;-72
2023/12/02 06:33:26;;;;;;;3.38;1.67;;;4.50;81.40;;;;;;5013395;28;20029;-69
2023/12/02 06:35:52;;;;;;;7.65;3.53;;;4.50;81.60;;;;;;4995533;28;20038;-71
2023/12/02 06:38:18;;;;;;;3.03;2.00;;;4.40;81.70;;;;;;5013215;28;20077;-70
2023/12/02 06:40:44;;;;;;;5.03;2.85;;;4.50;81.70;;;;;;5012312;28;20032;-71
2023/12/02 06:43:12;;;;;;;3.53;1.75;;;4.50;81.90;;;;;;4995312;28;20034;-69
2023/12/02 06:45:38;;;;;;;4.30;2.80;;;4.50;82.00;;;;;;4995482;28;20034;-71
2023/12/02 06:48:04;;;;;;;5.32;3.58;;;4.40;82.00;;;;;;5013464;28;20049;-70
2023/12/02 06:50:30;;;;;;;10.32;3.53;;;4.50;81.70;;;;;;4994718;28;20033;-72
2023/12/02 06:52:56;;;;;;;5.55;2.55;;;4.50;83.20;;;;;;5012677;28;20049;-71
2023/12/02 06:55:23;;;;;;;8.15;5.15;;;4.50;82.50;;;;;;5011668;28;20053;-72
2023/12/02 06:57:49;;;;;;;5.38;3.47;;;4.50;82.50;;;;;;5011843;28;20042;-69
2023/12/02 07:00:16;;;;;;;17.20;8.80;;;4.50;82.50;;;;;;5011021;28;20030;-71
2023/12/02 07:02:42;;;;;;;7.53;4.72;;;4.50;82.40;;;;;;5011793;28;20045;-71
2023/12/02 07:05:08;;;;;;;;;;;4.60;82.40;;;;;;5012031;28;20483;-69
2023/12/02 07:07:34;;;;;;;6.05;3.28;;;4.60;82.30;;;;;;5013176;28;19972;-69
2023/12/02 07:10:00;;;;;;;5.47;3.45;;;4.50;82.40;;;;;;4995109;28;20034;-70
2023/12/02 07:12:26;;;;;;;3.53;2.30;;;4.50;82.40;;;;;;5012492;28;20053;-70
2023/12/02 07:14:52;;;;;;;5.45;1.95;;;4.50;82.70;;;;;;5011362;28;20033;-72
2023/12/02 07:17:18;;;;;;;2.70;2.45;;;4.60;82.70;;;;;;5011542;28;20049;-72
2023/12/02 07:19:44;;;;;;;3.28;2.10;;;4.60;82.70;;;;;;5011407;28;20030;-71
2023/12/02 07:22:10;;;;;;;5.18;3.03;;;4.60;82.60;;;;;;5010568;28;20546;-70
2023/12/02 07:24:36;;;;;;;6.70;2.08;;;4.50;82.80;;;;;;4995076;28;20037;-72
2023/12/02 07:27:03;;;;;;;3.15;1.90;;;4.60;82.70;;;;;;5011473;28;20364;-69
2023/12/02 07:29:29;;;;;;;4.13;2.47;;;4.70;81.90;;;;;;5011449;28;20037;-70
2023/12/02 07:31:55;;;;;;;7.07;2.60;;;4.70;82.40;;;;;;5010395;28;20567;-72
2023/12/02 07:34:21;;;;;;;3.15;2.28;;;4.70;82.40;;;;;;5013823;28;20038;-72
2023/12/02 07:36:47;;;;;;;5.20;2.45;;;4.80;82.40;;;;;;5015364;28;20038;-69
2023/12/02 07:39:14;;;;;;;7.82;4.00;;;4.80;82.30;;;;;;4998935;28;20076;-71
2023/12/02 07:41:42;;;;;;;15.35;4.00;;;4.80;82.20;;;;;;5015872;28;20104;-69
2023/12/02 07:44:08;;;;;;;16.13;5.57;;;4.80;82.20;;;;;;5016169;28;20032;-69
2023/12/02 07:46:34;;;;;;;7.03;5.43;;;4.80;82.20;;;;;;5016525;28;20045;-70
2023/12/02 07:49:00;;;;;;;4.00;2.72;;;5.00;82.10;;;;;;5015316;28;20042;-69
2023/12/02 07:51:26;;;;;;;6.65;2.83;;;5.10;81.70;;;;;;5014376;28;20499;-71
2023/12/02 07:53:52;;;;;;;4.65;2.70;;;5.10;81.50;;;;;;5015960;28;20026;-69
2023/12/02 07:56:18;;;;;;;3.25;2.10;;;5.10;81.50;;;;;;5016400;28;20042;-72
2023/12/02 07:58:44;;;;;;;2.60;1.92;;;5.10;81.40;;;;;;5015999;28;20042;-70
2023/12/02 08:01:10;;;;;;;5.28;2.78;;;5.10;81.40;;;;;;4997801;28;20046;-70
2023/12/02 08:03:36;;;;;;;4.03;2.42;;;5.20;81.00;;;;;;5014849;28;20030;-69
2023/12/02 08:06:02;;;;;;;1.95;1.23;;;5.20;80.90;;;;;;5016032;28;20038;-70
2023/12/02 08:08:28;;;;;;;7.35;1.98;;;5.20;80.80;;;;;;5015975;28;20037;-71
2023/12/02 08:10:55;;;;;;;0.73;0.68;;;5.20;80.70;;;;;;5013744;28;20026;-72
2023/12/02 08:13:22;;;;;;;3.60;1.95;;;5.20;80.90;;;;;;4998322;28;20038;-69
2023/12/02 08:15:49;;;;;;;6.32;3.55;;;5.20;80.20;;;;;;4998309;28;20450;-72
2023/12/02 08:18:18;;;;;;;2.15;1.15;;;5.20;80.80;;;;;;5015952;28;20133;-72
2023/12/02 08:20:46;;;;;;;2.75;1.55;;;5.20;81.00;;;;;;5014903;28;20061;-72
2023/12/02 08:23:12;;;;;;;5.03;1.55;;;5.10;81.00;;;;;;5014479;28;20148;-72
2023/12/02 08:25:38;;;;;;;4.32;2.10;;;5.20;81.10;;;;;;5015549;28;20038;-72
2023/12/02 08:28:04;;;;;;;4.15;1.98;;;5.40;80.80;;;;;;5015678;28;20065;-71
2023/12/02 08:30:30;;;;;;;3.35;1.35;;;5.60;80.30;;;;;;5015126;28;20029;-69
2023/12/02 08:32:56;;;;;;;2.78;1.52;;;5.70;79.70;;;;;;5014296;28;20042;-69
2023/12/02 08:35:22;;;;;;;7.95;3.80;;;5.80;80.50;;;;;;5014235;28;20119;-72
2023/12/02 08:37:48;;;;;;;5.63;2.30;;;5.80;79.70;;;;;;5015822;28;20034;-69
2023/12/02 08:40:14;;;;;;;3.97;3.38;;;5.70;79.80;;;;;;5013712;28;20107;-69
2023/12/02 08:42:41;;;;;;;2.83;1.30;;;5.70;79.60;;;;;;4997882;28;20562;-69
2023/12/02 08:45:07;;;;;;;2.92;1.30;;;5.70;79.90;;;;;;5014726;28;20518;-69
2023/12/02 08:47:33;;;;;;;2.05;1.35;;;5.70;79.60;;;;;;5015706;28;20324;-69
2023/12/02 08:49:59;;;;;;;5.97;2.92;;;5.80;79.40;;;;;;5013998;28;20038;-71
2023/12/02 08:52:26;;;;;;;4.75;2.55;;;5.90;79.40;;;;;;5013335;28;20180;-72
2023/12/02 08:54:52;;;;;;;2.38;1.80;;;5.90;79.20;;;;;;5014868;28;20495;-69
2023/12/02 08:57:18;;;;;;;2.75;2.28;;;5.90;78.50;;;;;;5015278;28;20038;-71
2023/12/02 08:59:44;;;;;;;5.30;3.92;;;5.90;78.90;;;;;;5014896;28;20034;-69
2023/12/02 09:02:10;;;;;;;7.25;2.95;;;5.80;78.80;;;;;;4996687;28;20506;-69
2023/12/02 09:04:36;;;;;;;2.70;1.63;;;5.80;79.00;;;;;;5013617;28;20045;-70
2023/12/02 09:07:03;;;;;;;4.10;2.83;;;5.70;79.40;;;;;;5015183;28;20132;-69
2023/12/02 09:09:29;;;;;;;2.88;1.70;;;5.70;79.90;;;;;;5013662;28;20471;-69
2023/12/02 09:11:55;;;;;;;5.20;2.72;;;5.60;79.40;;;;;;5028496;28;20049;-72
2023/12/02 09:14:21;;;;;;;;;;;5.50;80.40;;;;;;5034710;28;20025;-69
2023/12/02 09:16:47;;;;;;;6.68;3.33;;;5.50;80.50;;;;;;5013262;28;20520;-72
2023/12/02 09:19:52;;;;;;;7.78;3.17;;;5.50;80.70;;;;;;5015505;28;20034;-69
2023/12/02 09:22:57;;;;;;;5.78;2.67;;;5.50;81.10;;;;;;5013836;28;20066;-70
2023/12/02 09:25:28;;;;;;;4.57;1.95;;;5.60;80.60;;;;;;5014699;28;20030;-69
2023/12/02 09:28:32;;;;;;;3.65;1.48;;;5.70;80.40;;;;;;5013344;28;20523;-69
2023/12/02 09:31:17;;;;;;;8.73;3.80;;;5.80;80.30;;;;;;5012287;28;20085;-72
2023/12/02 09:33:45;;;;;;;2.08;1.08;;;5.80;79.30;;;;;;5014250;28;20072;-72
2023/12/02 09:36:41;;;;;;;6.75;2.55;;;5.70;80.10;;;;;;5028035;28;20497;-70
2023/12/02 09:39:26;;;;;;;3.97;1.85;;;5.70;80.40;;;;;;5032989;28;20091;-71
2023/12/02 09:42:01;;;;;;;1.45;0.88;;;5.70;80.50;;;;;;5033312;28;20132;-70
2023/12/02 09:44:27;;;;;;;2.28;1.38;;;5.70;80.20;;;;;;5032828;28;20033;-72
2023/12/02 09:47:23;;;;;;;3.88;1.95;;;5.70;80.60;;;;;;5033755;28;20044;-69
2023/12/02 09:50:09;;;;;;;5.15;2.65;;;5.70;80.50;;;;;;5032601;28;20030;-72
2023/12/02 09:53:33;;;;;;;1.90;1.45;;;5.70;80.50;;;;;;5038035;28;20041;-69
2023/12/02 09:56:03;;;;;;;1.63;1.05;;;5.70;80.70;;;;;;5033144;28;20041;-69
2023/12/02 09:59:29;;;;;;;8.00;2.50;;;5.60;80.70;;;;;;5064923;28;20033;-73
2023/12/02 10:02:06;;;;;;;4.60;1.85;;;5.60;81.00;;;;;;5051884;28;20120;-69
2023/12/02 10:05:05;;;;;;;5.20;2.80;;;5.60;81.20;;;;;;5035178;28;20425;-69
2023/12/02 10:08:27;;;;;;;2.45;1.75;;;5.60;81.40;;;;;;5052474;28;20048;-74
2023/12/02 10:11:51;;;;;;;2.03;1.63;;;5.60;81.40;;;;;;5046614;28;20037;-72
2023/12/02 10:14:23;;;;;;;2.05;1.30;;;5.60;81.40;;;;;;5053283;28;20075;-75
2023/12/02 10:16:53;;;;;;;1.98;1.45;;;5.60;81.60;;;;;;5053248;28;20091;-74
2023/12/02 10:19:57;;;;;;;5.15;2.30;;;5.60;81.70;;;;;;5052203;28;20040;-75
2023/12/02 10:22:28;;;;;;;3.05;1.88;;;5.60;82.00;;;;;;5034807;28;20057;-74
2023/12/02 10:25:50;;;;;;;2.03;1.35;;;5.60;82.10;;;;;;5051785;28;20025;-74
2023/12/02 10:29:13;;;;;;;1.10;0.55;;;5.70;82.10;;;;;;5033153;28;20049;-74
2023/12/02 10:31:59;;;;;;;2.90;1.77;;;5.80;81.50;;;;;;5032317;28;20045;-75
2023/12/02 10:34:42;;;;;;;5.95;1.83;;;5.90;81.40;;;;;;5031864;28;20094;-71
2023/12/02 10:37:11;;;;;;;2.88;1.33;;;6.10;81.20;;;;;;5035379;28;20042;-71
2023/12/02 10:39:56;;;;;;;4.60;2.55;;;6.20;80.80;;;;;;5037845;28;20478;-71
2023/12/02 10:43:18;;;;;;;1.55;1.08;;;6.40;80.50;;;;;;5035047;28;20037;-74
2023/12/02 10:45:45;;;;;;;4.13;2.03;;;6.40;80.40;;;;;;5042401;28;20036;-74
2023/12/02 10:48:13;;;;;;;3.53;1.40;;;6.40;80.40;;;;;;5085101;28;20446;-71
2023/12/02 10:50:40;;;;;;;1.15;0.73;;;6.40;80.40;;;;;;5050545;28;20417;-74
2023/12/02 10:53:06;;;;;;;3.58;1.10;;;6.30;80.30;;;;;;5047927;28;20120;-74
2023/12/02 10:55:36;;;;;;;4.03;2.42;;;6.30;81.90;;;;;;5031476;28;20509;-74
2023/12/02 10:58:22;;;;;;;9.10;2.78;;;6.30;82.20;;;;;;5044702;28;20590;-72
2023/12/02 11:00:58;;;;;;;7.13;3.80;;;6.30;83.20;;;;;;5050635;28;20052;-74
2023/12/02 11:04:04;;;;;;;1.15;1.02;;;6.20;83.80;;;;;;5049499;28;20086;-72
2023/12/02 11:06:54;;;;;;;3.85;2.72;;;6.40;83.50;;;;;;5045471;28;20037;-71
2023/12/02 11:09:51;;;;;;;2.90;2.30;;;6.60;82.70;;;;;;5029624;28;20116;-71
2023/12/02 11:12:55;;;;;;;2.53;1.30;;;6.80;82.10;;;;;;5031110;28;20560;-71
2023/12/02 11:15:23;;;;;;;2.45;0.95;;;7.20;80.60;;;;;;5033042;28;20032;-73
2023/12/02 11:18:10;;;;;;;3.97;1.35;;;7.50;79.40;;;;;;5031454;28;20069;-74
2023/12/02 11:20:57;;;;;;;3.83;2.30;;;7.70;78.50;;;;;;5044329;28;20327;-74
2023/12/02 11:23:41;;;;;;;2.35;1.23;;;8.40;77.00;;;;;;5033791;28;20474;-72
2023/12/02 11:26:32;;;;;;;3.78;2.08;;;8.90;74.80;;;;;;5041788;28;20452;-71
2023/12/02 11:29:47;;;;;;;4.90;2.38;;;9.10;73.40;;;;;;5047463;28;20080;-73
2023/12/02 11:32:34;;;;;;;3.22;2.92;;;8.90;73.60;;;;;;5032497;28;20514;-71
2023/12/02 11:35:24;;;;;;;2.33;2.15;;;8.60;74.00;;;;;;5045458;28;20068;-71
2023/12/02 11:37:58;;;;;;;2.10;0.95;;;8.50;75.20;;;;;;5081450;28;20413;-74
2023/12/02 11:41:20;;;;;;;2.05;1.00;;;8.30;75.90;;;;;;5048633;28;20116;-74
2023/12/02 11:44:32;;;;;;;4.22;2.75;;;8.20;76.00;;;;;;5048687;28;20041;-69
2023/12/02 11:47:45;;;;;;;3.25;1.75;;;8.30;76.00;;;;;;5047910;28;20033;-74
2023/12/02 11:50:55;;;;;;;1.75;1.23;;;8.90;73.30;;;;;;5048350;28;20040;-74
2023/12/02 11:53:50;;;;;;;4.18;3.63;;;8.60;74.20;;;;;;5049859;28;20075;-71
2023/12/02 11:56:21;;;;;;;3.15;2.22;;;8.60;74.90;;;;;;5068972;28;20033;-73
2023/12/02 11:59:25;;;;;;;3.67;2.00;;;8.80;74.60;;;;;;5039836;28;20025;-71
2023/12/02 12:02:39;;;;;;;2.85;2.13;;;9.10;73.30;;;;;;5048599;28;20054;-69
2023/12/02 12:05:25;;;;;;;4.43;2.20;;;8.90;72.10;;;;;;5063721;28;20078;-69
2023/12/02 12:08:18;;;;;;;1.47;0.63;;;8.90;72.20;;;;;;5046417;28;20502;-75
2023/12/02 12:10:46;;;;;;;2.05;1.63;;;8.90;71.90;;;;;;5028127;28;20049;-74
2023/12/02 12:13:19;;;;;;;1.95;1.50;;;8.80;71.90;;;;;;5029697;28;20072;-69
2023/12/02 12:15:46;;;;;;;1.08;0.57;;;8.70;72.20;;;;;;5042653;28;20053;-69
2023/12/02 12:18:13;;;;;;;2.13;1.05;;;8.50;72.30;;;;;;5030595;28;20044;-72
2023/12/02 12:20:43;;;;;;;2.65;1.25;;;8.50;73.60;;;;;;5037249;28;20039;-72
2023/12/02 12:23:11;;;;;;;2.30;1.33;;;8.40;74.00;;;;;;5025963;28;20471;-69
2023/12/02 12:25:37;;;;;;;1.45;1.05;;;8.40;74.40;;;;;;5020509;28;20052;-71
2023/12/02 12:28:06;;;;;;;0.77;0.63;;;8.40;74.80;;;;;;5017077;28;20410;-69
2023/12/02 12:30:51;;;;;;;4.75;1.45;;;8.40;74.70;;;;;;5007225;28;20042;-72
2023/12/02 12:33:19;;;;;;;2.45;0.93;;;8.50;74.70;;;;;;5014964;28;20044;-69
2023/12/02 12:35:46;;;;;;;3.90;1.30;;;8.50;73.70;;;;;;5032633;28;20054;-72
2023/12/02 12:38:12;;;;;;;3.30;2.17;;;8.60;73.00;;;;;;5024949;28;20040;-72
2023/12/02 12:40:41;;;;;;;0.47;0.40;;;9.10;72.20;;;;;;5026549;28;20030;-72
2023/12/02 12:43:09;;;;;;;3.03;1.27;;;9.40;70.90;;;;;;5018302;28;20037;-70
2023/12/02 12:45:36;;;;;;;3.88;0.80;;;9.80;69.00;;;;;;5014350;28;20061;-73
2023/12/02 12:48:05;;;;;;;0.63;0.63;;;10.40;66.20;;;;;;5014574;28;20042;-73
2023/12/02 12:53:27;;;;;;;0.63;0.40;;;9.80;66.00;;;;;;5021682;28;20052;-69
2023/12/02 12:56:18;;;;;;;1.70;0.88;;;9.10;67.30;;;;;;5012981;28;20076;-69
2023/12/02 12:59:03;;;;;;;0.80;0.68;;;8.60;69.30;;;;;;5014506;28;20037;-71
2023/12/02 13:01:32;;;;;;;0.30;0.30;;;8.30;70.00;;;;;;5031387;28;20038;-74
2023/12/02 13:04:09;;;;;;;1.38;0.25;;;8.10;70.40;;;;;;5033636;28;20025;-72
2023/12/02 13:07:12;;;;;;;0.85;0.68;;;8.00;71.10;;;;;;5033600;28;20099;-72
2023/12/02 13:10:00;;;;;;;0.20;0.20;;;8.20;71.50;;;;;;5031471;28;20033;-73
2023/12/02 13:12:29;;;;;;;2.63;1.75;;;8.60;70.50;;;;;;5029992;28;20136;-74
2023/12/02 13:15:03;;;;;;;0.93;0.85;;;9.10;69.60;;;;;;4996792;28;20062;-69
2023/12/02 13:17:46;;;;;;;2.95;1.80;;;9.40;68.60;;;;;;5027463;28;20367;-71
2023/12/02 13:20:15;;;;;;;0.77;0.43;;;9.50;68.00;;;;;;5016216;28;20084;-72
2023/12/02 13:22:45;;;;;;;0.52;0.38;;;9.30;68.80;;;;;;5034454;28;20080;-69
2023/12/02 13:25:33;;;;;;;0.93;0.60;;;9.10;69.40;;;;;;5032081;28;20061;-72